sensor_id;sensor_type;location;lat;lon;timestamp;P1;durP1;ratioP1;P2;durP2;ratioP2
3149;SDS011;32503;47.748;8.960;2022-09-12T00:01:10;3.10;;;2.70;;
3149;SDS011;32503;47.748;8.960;2022-09-12T00:03:39;2.40;;;2.30;;
3149;SDS011;32503;47.748;8.960;2022-09-12T00:06:08;2.67;;;2.57;;
3149;SDS011;32503;47.748;8.960;2022-09-12T00:08:37;3.00;;;2.80;;
3149;SDS011;32503;47.748;8.960;2022-09-12T00:11:05;2.93;;;2.73;;
3149;SDS011;32503;47.748;8.960;2022-09-12T00:13:34;3.03;;;2.90;;
3149;SDS011;32503;47.748;8.960;2022-09-12T00:16:02;2.60;;;2.50;;
3149;SDS011;32503;47.748;8.960;2022-09-12T00:18:31;2.83;;;2.63;;
3149;SDS011;32503;47.748;8.960;2022-09-12T00:21:01;1.93;;;1.83;;
3149;SDS011;32503;47.748;8.960;2022-09-12T00:23:30;2.87;;;2.63;;
3149;SDS011;32503;47.748;8.960;2022-09-12T00:25:57;2.43;;;2.33;;
3149;SDS011;32503;47.748;8.960;2022-09-12T00:28:24;2.77;;;2.67;;
3149;SDS011;32503;47.748;8.960;2022-09-12T00:30:51;2.73;;;2.63;;
3149;SDS011;32503;47.748;8.960;2022-09-12T00:33:19;2.50;;;2.30;;
3149;SDS011;32503;47.748;8.960;2022-09-12T00:35:48;2.27;;;2.17;;
3149;SDS011;32503;47.748;8.960;2022-09-12T00:38:17;2.40;;;2.30;;
3149;SDS011;32503;47.748;8.960;2022-09-12T00:40:46;2.80;;;2.60;;
3149;SDS011;32503;47.748;8.960;2022-09-12T00:43:14;2.17;;;2.07;;
3149;SDS011;32503;47.748;8.960;2022-09-12T00:46:02;1.87;;;1.77;;
3149;SDS011;32503;47.748;8.960;2022-09-12T00:48:40;1.80;;;1.70;;
3149;SDS011;32503;47.748;8.960;2022-09-12T00:51:13;2.90;;;2.63;;
3149;SDS011;32503;47.748;8.960;2022-09-12T00:53:42;2.30;;;2.10;;
3149;SDS011;32503;47.748;8.960;2022-09-12T00:56:11;1.97;;;1.87;;
3149;SDS011;32503;47.748;8.960;2022-09-12T00:58:43;2.50;;;2.33;;
3149;SDS011;32503;47.748;8.960;2022-09-12T01:01:16;2.97;;;2.87;;
3149;SDS011;32503;47.748;8.960;2022-09-12T01:03:44;2.77;;;2.67;;
3149;SDS011;32503;47.748;8.960;2022-09-12T01:06:13;3.03;;;2.83;;
3149;SDS011;32503;47.748;8.960;2022-09-12T01:08:46;2.50;;;2.37;;
3149;SDS011;32503;47.748;8.960;2022-09-12T01:11:14;2.80;;;2.70;;
3149;SDS011;32503;47.748;8.960;2022-09-12T01:13:43;2.37;;;2.27;;
3149;SDS011;32503;47.748;8.960;2022-09-12T01:16:11;2.63;;;2.53;;
3149;SDS011;32503;47.748;8.960;2022-09-12T01:18:42;4.80;;;2.83;;
3149;SDS011;32503;47.748;8.960;2022-09-12T01:21:24;1.93;;;1.83;;
3149;SDS011;32503;47.748;8.960;2022-09-12T01:24:19;2.67;;;2.33;;
3149;SDS011;32503;47.748;8.960;2022-09-12T01:30:04;3.07;;;2.87;;
3149;SDS011;32503;47.748;8.960;2022-09-12T01:33:07;2.30;;;2.20;;
3149;SDS011;32503;47.748;8.960;2022-09-12T01:36:03;2.87;;;2.67;;
3149;SDS011;32503;47.748;8.960;2022-09-12T01:38:49;2.50;;;2.40;;
3149;SDS011;32503;47.748;8.960;2022-09-12T01:41:23;3.10;;;3.00;;
3149;SDS011;32503;47.748;8.960;2022-09-12T01:43:57;2.73;;;2.53;;
3149;SDS011;32503;47.748;8.960;2022-09-12T01:46:33;2.93;;;2.83;;
3149;SDS011;32503;47.748;8.960;2022-09-12T01:49:09;2.63;;;2.53;;
3149;SDS011;32503;47.748;8.960;2022-09-12T01:51:43;3.43;;;3.13;;
3149;SDS011;32503;47.748;8.960;2022-09-12T01:54:23;2.77;;;2.63;;
3149;SDS011;32503;47.748;8.960;2022-09-12T01:56:58;2.67;;;2.57;;
3149;SDS011;32503;47.748;8.960;2022-09-12T01:59:33;3.23;;;3.13;;
3149;SDS011;32503;47.748;8.960;2022-09-12T02:02:07;3.43;;;3.23;;
3149;SDS011;32503;47.748;8.960;2022-09-12T02:04:39;2.60;;;2.50;;
3149;SDS011;32503;47.748;8.960;2022-09-12T02:07:13;2.37;;;2.27;;
3149;SDS011;32503;47.748;8.960;2022-09-12T02:09:45;2.87;;;2.67;;
3149;SDS011;32503;47.748;8.960;2022-09-12T02:12:19;3.07;;;2.87;;
3149;SDS011;32503;47.748;8.960;2022-09-12T02:14:52;2.70;;;2.60;;
3149;SDS011;32503;47.748;8.960;2022-09-12T02:17:26;3.20;;;2.87;;
3149;SDS011;32503;47.748;8.960;2022-09-12T02:19:56;3.27;;;3.07;;
3149;SDS011;32503;47.748;8.960;2022-09-12T02:22:31;3.10;;;2.73;;
3149;SDS011;32503;47.748;8.960;2022-09-12T02:25:02;3.17;;;2.97;;
3149;SDS011;32503;47.748;8.960;2022-09-12T02:27:34;2.63;;;2.53;;
3149;SDS011;32503;47.748;8.960;2022-09-12T02:30:06;3.00;;;2.80;;
3149;SDS011;32503;47.748;8.960;2022-09-12T02:32:40;3.00;;;2.80;;
3149;SDS011;32503;47.748;8.960;2022-09-12T02:35:15;2.93;;;2.73;;
3149;SDS011;32503;47.748;8.960;2022-09-12T02:37:54;3.77;;;3.57;;
3149;SDS011;32503;47.748;8.960;2022-09-12T02:40:27;2.80;;;2.70;;
3149;SDS011;32503;47.748;8.960;2022-09-12T02:42:55;3.47;;;3.27;;
3149;SDS011;32503;47.748;8.960;2022-09-12T02:45:23;2.80;;;2.70;;
3149;SDS011;32503;47.748;8.960;2022-09-12T02:47:53;2.83;;;2.73;;
3149;SDS011;32503;47.748;8.960;2022-09-12T02:50:25;4.47;;;3.63;;
3149;SDS011;32503;47.748;8.960;2022-09-12T02:52:53;2.70;;;2.50;;
3149;SDS011;32503;47.748;8.960;2022-09-12T02:55:24;2.47;;;2.37;;
3149;SDS011;32503;47.748;8.960;2022-09-12T02:57:51;3.13;;;2.93;;
3149;SDS011;32503;47.748;8.960;2022-09-12T03:00:18;2.77;;;2.63;;
3149;SDS011;32503;47.748;8.960;2022-09-12T03:02:54;3.63;;;3.33;;
3149;SDS011;32503;47.748;8.960;2022-09-12T03:05:39;3.20;;;3.00;;
3149;SDS011;32503;47.748;8.960;2022-09-12T03:08:25;2.87;;;2.67;;
3149;SDS011;32503;47.748;8.960;2022-09-12T03:14:28;3.30;;;3.00;;
3149;SDS011;32503;47.748;8.960;2022-09-12T03:17:17;2.97;;;2.87;;
3149;SDS011;32503;47.748;8.960;2022-09-12T03:19:57;3.63;;;2.97;;
3149;SDS011;32503;47.748;8.960;2022-09-12T03:22:32;3.17;;;2.97;;
3149;SDS011;32503;47.748;8.960;2022-09-12T03:25:10;3.90;;;3.63;;
3149;SDS011;32503;47.748;8.960;2022-09-12T03:27:44;3.70;;;3.50;;
3149;SDS011;32503;47.748;8.960;2022-09-12T03:30:19;3.63;;;3.40;;
3149;SDS011;32503;47.748;8.960;2022-09-12T03:32:47;4.10;;;3.80;;
3149;SDS011;32503;47.748;8.960;2022-09-12T03:35:18;3.70;;;3.50;;
3149;SDS011;32503;47.748;8.960;2022-09-12T03:37:47;3.50;;;3.27;;
3149;SDS011;32503;47.748;8.960;2022-09-12T03:40:15;3.27;;;3.07;;
3149;SDS011;32503;47.748;8.960;2022-09-12T03:42:43;2.53;;;2.40;;
3149;SDS011;32503;47.748;8.960;2022-09-12T03:45:10;3.63;;;3.40;;
3149;SDS011;32503;47.748;8.960;2022-09-12T03:47:37;3.20;;;3.00;;
3149;SDS011;32503;47.748;8.960;2022-09-12T03:50:05;3.40;;;3.17;;
3149;SDS011;32503;47.748;8.960;2022-09-12T03:52:34;3.03;;;2.83;;
3149;SDS011;32503;47.748;8.960;2022-09-12T03:55:02;3.97;;;3.73;;
3149;SDS011;32503;47.748;8.960;2022-09-12T03:57:30;3.80;;;3.50;;
3149;SDS011;32503;47.748;8.960;2022-09-12T03:59:57;3.57;;;3.30;;
3149;SDS011;32503;47.748;8.960;2022-09-12T04:02:24;4.27;;;3.93;;
3149;SDS011;32503;47.748;8.960;2022-09-12T04:04:51;4.03;;;3.80;;
3149;SDS011;32503;47.748;8.960;2022-09-12T04:07:18;3.53;;;3.23;;
3149;SDS011;32503;47.748;8.960;2022-09-12T04:09:46;4.20;;;3.90;;
3149;SDS011;32503;47.748;8.960;2022-09-12T04:12:13;3.37;;;3.17;;
3149;SDS011;32503;47.748;8.960;2022-09-12T04:14:40;3.53;;;3.27;;
3149;SDS011;32503;47.748;8.960;2022-09-12T04:17:07;4.40;;;4.10;;
3149;SDS011;32503;47.748;8.960;2022-09-12T04:19:34;4.27;;;3.90;;
3149;SDS011;32503;47.748;8.960;2022-09-12T04:22:01;2.80;;;2.67;;
3149;SDS011;32503;47.748;8.960;2022-09-12T04:24:29;3.73;;;3.43;;
3149;SDS011;32503;47.748;8.960;2022-09-12T04:26:57;4.30;;;3.80;;
3149;SDS011;32503;47.748;8.960;2022-09-12T04:29:24;3.53;;;3.13;;
3149;SDS011;32503;47.748;8.960;2022-09-12T04:31:52;4.03;;;3.67;;
3149;SDS011;32503;47.748;8.960;2022-09-12T04:34:19;4.70;;;4.40;;
3149;SDS011;32503;47.748;8.960;2022-09-12T04:36:46;4.50;;;3.87;;
3149;SDS011;32503;47.748;8.960;2022-09-12T04:39:13;3.40;;;3.10;;
3149;SDS011;32503;47.748;8.960;2022-09-12T04:41:41;4.53;;;4.13;;
3149;SDS011;32503;47.748;8.960;2022-09-12T04:44:10;6.57;;;3.97;;
3149;SDS011;32503;47.748;8.960;2022-09-12T04:46:41;3.83;;;3.53;;
3149;SDS011;32503;47.748;8.960;2022-09-12T04:49:11;4.17;;;3.87;;
3149;SDS011;32503;47.748;8.960;2022-09-12T04:51:43;4.23;;;3.87;;
3149;SDS011;32503;47.748;8.960;2022-09-12T04:54:12;3.53;;;3.33;;
3149;SDS011;32503;47.748;8.960;2022-09-12T04:56:43;4.10;;;3.80;;
3149;SDS011;32503;47.748;8.960;2022-09-12T04:59:14;3.27;;;2.97;;
3149;SDS011;32503;47.748;8.960;2022-09-12T05:01:43;3.70;;;3.47;;
3149;SDS011;32503;47.748;8.960;2022-09-12T05:04:12;4.60;;;4.30;;
3149;SDS011;32503;47.748;8.960;2022-09-12T05:06:40;3.90;;;3.60;;
3149;SDS011;32503;47.748;8.960;2022-09-12T05:09:09;7.40;;;3.27;;
3149;SDS011;32503;47.748;8.960;2022-09-12T05:11:40;10.40;;;3.70;;
3149;SDS011;32503;47.748;8.960;2022-09-12T05:14:09;2.70;;;2.60;;
3149;SDS011;32503;47.748;8.960;2022-09-12T05:16:38;4.17;;;3.87;;
3149;SDS011;32503;47.748;8.960;2022-09-12T05:19:08;4.20;;;3.50;;
3149;SDS011;32503;47.748;8.960;2022-09-12T05:21:36;3.57;;;3.27;;
3149;SDS011;32503;47.748;8.960;2022-09-12T05:24:04;3.70;;;3.40;;
3149;SDS011;32503;47.748;8.960;2022-09-12T05:26:31;4.73;;;4.33;;
3149;SDS011;32503;47.748;8.960;2022-09-12T05:28:58;5.93;;;4.30;;
3149;SDS011;32503;47.748;8.960;2022-09-12T05:31:26;5.70;;;3.43;;
3149;SDS011;32503;47.748;8.960;2022-09-12T05:33:55;4.50;;;4.10;;
3149;SDS011;32503;47.748;8.960;2022-09-12T05:36:22;5.43;;;4.57;;
3149;SDS011;32503;47.748;8.960;2022-09-12T05:38:51;2.90;;;2.80;;
3149;SDS011;32503;47.748;8.960;2022-09-12T05:41:19;3.90;;;3.50;;
3149;SDS011;32503;47.748;8.960;2022-09-12T05:43:50;5.50;;;3.70;;
3149;SDS011;32503;47.748;8.960;2022-09-12T05:46:19;4.47;;;4.07;;
3149;SDS011;32503;47.748;8.960;2022-09-12T05:48:48;3.90;;;3.60;;
3149;SDS011;32503;47.748;8.960;2022-09-12T05:51:17;4.20;;;3.93;;
3149;SDS011;32503;47.748;8.960;2022-09-12T05:53:47;4.20;;;3.80;;
3149;SDS011;32503;47.748;8.960;2022-09-12T05:56:18;3.97;;;3.77;;
3149;SDS011;32503;47.748;8.960;2022-09-12T05:58:54;4.03;;;3.83;;
3149;SDS011;32503;47.748;8.960;2022-09-12T06:01:23;4.20;;;3.90;;
3149;SDS011;32503;47.748;8.960;2022-09-12T06:03:52;4.13;;;3.93;;
3149;SDS011;32503;47.748;8.960;2022-09-12T06:06:23;4.07;;;3.87;;
3149;SDS011;32503;47.748;8.960;2022-09-12T06:08:52;3.23;;;3.13;;
3149;SDS011;32503;47.748;8.960;2022-09-12T06:11:27;3.10;;;2.90;;
3149;SDS011;32503;47.748;8.960;2022-09-12T06:13:57;3.30;;;3.20;;
3149;SDS011;32503;47.748;8.960;2022-09-12T06:16:25;3.47;;;3.27;;
3149;SDS011;32503;47.748;8.960;2022-09-12T06:18:56;4.00;;;3.70;;
3149;SDS011;32503;47.748;8.960;2022-09-12T06:21:27;4.10;;;3.80;;
3149;SDS011;32503;47.748;8.960;2022-09-12T06:23:56;3.60;;;3.40;;
3149;SDS011;32503;47.748;8.960;2022-09-12T06:26:24;5.03;;;4.50;;
3149;SDS011;32503;47.748;8.960;2022-09-12T06:28:52;4.73;;;4.33;;
3149;SDS011;32503;47.748;8.960;2022-09-12T06:31:22;2.93;;;2.83;;
3149;SDS011;32503;47.748;8.960;2022-09-12T06:33:52;3.87;;;3.67;;
3149;SDS011;32503;47.748;8.960;2022-09-12T06:36:21;3.70;;;3.50;;
3149;SDS011;32503;47.748;8.960;2022-09-12T06:38:54;3.80;;;3.60;;
3149;SDS011;32503;47.748;8.960;2022-09-12T06:41:23;4.07;;;3.87;;
3149;SDS011;32503;47.748;8.960;2022-09-12T06:43:51;3.90;;;3.63;;
3149;SDS011;32503;47.748;8.960;2022-09-12T06:46:19;4.40;;;4.10;;
3149;SDS011;32503;47.748;8.960;2022-09-12T06:48:46;3.90;;;3.70;;
3149;SDS011;32503;47.748;8.960;2022-09-12T06:51:15;5.20;;;4.77;;
3149;SDS011;32503;47.748;8.960;2022-09-12T06:53:45;4.50;;;4.23;;
3149;SDS011;32503;47.748;8.960;2022-09-12T06:56:15;5.00;;;4.60;;
3149;SDS011;32503;47.748;8.960;2022-09-12T06:58:44;5.83;;;5.37;;
3149;SDS011;32503;47.748;8.960;2022-09-12T07:01:12;6.33;;;5.73;;
3149;SDS011;32503;47.748;8.960;2022-09-12T07:03:41;6.90;;;5.57;;
3149;SDS011;32503;47.748;8.960;2022-09-12T07:06:13;5.43;;;5.03;;
3149;SDS011;32503;47.748;8.960;2022-09-12T07:08:41;6.70;;;6.20;;
3149;SDS011;32503;47.748;8.960;2022-09-12T07:11:10;4.67;;;4.37;;
3149;SDS011;32503;47.748;8.960;2022-09-12T07:13:41;5.17;;;4.77;;
3149;SDS011;32503;47.748;8.960;2022-09-12T07:16:10;6.03;;;5.43;;
3149;SDS011;32503;47.748;8.960;2022-09-12T07:18:38;5.80;;;5.40;;
3149;SDS011;32503;47.748;8.960;2022-09-12T07:21:07;5.77;;;5.37;;
3149;SDS011;32503;47.748;8.960;2022-09-12T07:23:37;5.97;;;5.47;;
3149;SDS011;32503;47.748;8.960;2022-09-12T07:26:06;5.90;;;5.40;;
3149;SDS011;32503;47.748;8.960;2022-09-12T07:28:35;5.40;;;5.00;;
3149;SDS011;32503;47.748;8.960;2022-09-12T07:31:08;4.80;;;4.50;;
3149;SDS011;32503;47.748;8.960;2022-09-12T07:33:39;4.60;;;4.40;;
3149;SDS011;32503;47.748;8.960;2022-09-12T07:36:08;4.70;;;4.30;;
3149;SDS011;32503;47.748;8.960;2022-09-12T07:38:38;4.83;;;4.43;;
3149;SDS011;32503;47.748;8.960;2022-09-12T07:41:09;4.27;;;4.07;;
3149;SDS011;32503;47.748;8.960;2022-09-12T07:43:37;4.60;;;4.20;;
3149;SDS011;32503;47.748;8.960;2022-09-12T07:46:04;4.80;;;4.50;;
3149;SDS011;32503;47.748;8.960;2022-09-12T07:48:33;4.03;;;3.83;;
3149;SDS011;32503;47.748;8.960;2022-09-12T07:51:00;4.27;;;4.07;;
3149;SDS011;32503;47.748;8.960;2022-09-12T07:53:30;3.63;;;3.43;;
3149;SDS011;32503;47.748;8.960;2022-09-12T07:55:59;4.00;;;3.70;;
3149;SDS011;32503;47.748;8.960;2022-09-12T07:58:27;4.10;;;3.90;;
3149;SDS011;32503;47.748;8.960;2022-09-12T08:01:00;3.90;;;3.57;;
3149;SDS011;32503;47.748;8.960;2022-09-12T08:03:28;4.20;;;4.00;;
3149;SDS011;32503;47.748;8.960;2022-09-12T08:06:02;3.73;;;3.53;;
3149;SDS011;32503;47.748;8.960;2022-09-12T08:08:30;3.80;;;3.60;;
3149;SDS011;32503;47.748;8.960;2022-09-12T08:10:58;3.37;;;3.17;;
3149;SDS011;32503;47.748;8.960;2022-09-12T08:13:27;3.60;;;3.30;;
3149;SDS011;32503;47.748;8.960;2022-09-12T08:15:56;2.70;;;2.60;;
3149;SDS011;32503;47.748;8.960;2022-09-12T08:18:24;2.97;;;2.87;;
3149;SDS011;32503;47.748;8.960;2022-09-12T08:20:55;3.07;;;2.87;;
3149;SDS011;32503;47.748;8.960;2022-09-12T08:23:25;2.70;;;2.60;;
3149;SDS011;32503;47.748;8.960;2022-09-12T08:25:54;3.30;;;3.00;;
3149;SDS011;32503;47.748;8.960;2022-09-12T08:28:22;2.73;;;2.63;;
3149;SDS011;32503;47.748;8.960;2022-09-12T08:30:49;3.17;;;2.87;;
3149;SDS011;32503;47.748;8.960;2022-09-12T08:33:16;2.40;;;2.30;;
3149;SDS011;32503;47.748;8.960;2022-09-12T08:35:43;2.80;;;2.70;;
3149;SDS011;32503;47.748;8.960;2022-09-12T08:38:11;2.30;;;2.20;;
3149;SDS011;32503;47.748;8.960;2022-09-12T08:40:42;2.20;;;2.10;;
3149;SDS011;32503;47.748;8.960;2022-09-12T08:43:19;2.60;;;2.40;;
3149;SDS011;32503;47.748;8.960;2022-09-12T08:46:01;2.67;;;2.47;;
3149;SDS011;32503;47.748;8.960;2022-09-12T08:48:36;2.90;;;2.70;;
3149;SDS011;32503;47.748;8.960;2022-09-12T08:51:04;2.50;;;2.40;;
3149;SDS011;32503;47.748;8.960;2022-09-12T08:53:31;3.50;;;2.53;;
3149;SDS011;32503;47.748;8.960;2022-09-12T08:56:02;1.73;;;1.63;;
3149;SDS011;32503;47.748;8.960;2022-09-12T08:58:36;2.30;;;2.20;;
3149;SDS011;32503;47.748;8.960;2022-09-12T09:01:07;2.90;;;2.80;;
3149;SDS011;32503;47.748;8.960;2022-09-12T09:03:48;2.40;;;2.30;;
3149;SDS011;32503;47.748;8.960;2022-09-12T09:06:32;2.87;;;2.70;;
3149;SDS011;32503;47.748;8.960;2022-09-12T09:09:14;3.20;;;3.00;;
3149;SDS011;32503;47.748;8.960;2022-09-12T09:11:54;1.90;;;1.80;;
3149;SDS011;32503;47.748;8.960;2022-09-12T09:14:43;2.50;;;2.40;;
3149;SDS011;32503;47.748;8.960;2022-09-12T09:17:47;2.60;;;2.50;;
3149;SDS011;32503;47.748;8.960;2022-09-12T09:20:25;2.40;;;2.30;;
3149;SDS011;32503;47.748;8.960;2022-09-12T09:23:01;2.30;;;2.20;;
3149;SDS011;32503;47.748;8.960;2022-09-12T09:25:37;2.37;;;1.80;;
3149;SDS011;32503;47.748;8.960;2022-09-12T09:28:13;3.57;;;2.63;;
3149;SDS011;32503;47.748;8.960;2022-09-12T09:30:44;2.60;;;2.50;;
3149;SDS011;32503;47.748;8.960;2022-09-12T09:33:14;2.60;;;2.50;;
3149;SDS011;32503;47.748;8.960;2022-09-12T09:35:50;2.77;;;2.63;;
3149;SDS011;32503;47.748;8.960;2022-09-12T09:38:27;2.53;;;2.43;;
3149;SDS011;32503;47.748;8.960;2022-09-12T09:41:11;2.20;;;2.10;;
3149;SDS011;32503;47.748;8.960;2022-09-12T09:44:01;2.60;;;2.50;;
3149;SDS011;32503;47.748;8.960;2022-09-12T09:46:29;2.63;;;2.53;;
3149;SDS011;32503;47.748;8.960;2022-09-12T09:48:57;4.13;;;2.33;;
3149;SDS011;32503;47.748;8.960;2022-09-12T09:51:28;2.50;;;2.30;;
3149;SDS011;32503;47.748;8.960;2022-09-12T09:54:01;2.83;;;2.73;;
3149;SDS011;32503;47.748;8.960;2022-09-12T09:56:39;2.50;;;2.40;;
3149;SDS011;32503;47.748;8.960;2022-09-12T09:59:09;3.27;;;3.07;;
3149;SDS011;32503;47.748;8.960;2022-09-12T10:01:42;3.07;;;2.93;;
3149;SDS011;32503;47.748;8.960;2022-09-12T10:04:16;2.53;;;2.43;;
3149;SDS011;32503;47.748;8.960;2022-09-12T10:06:45;2.60;;;2.50;;
3149;SDS011;32503;47.748;8.960;2022-09-12T10:09:17;3.07;;;2.97;;
3149;SDS011;32503;47.748;8.960;2022-09-12T10:11:51;2.80;;;2.60;;
3149;SDS011;32503;47.748;8.960;2022-09-12T10:17:26;2.77;;;2.67;;
3149;SDS011;32503;47.748;8.960;2022-09-12T10:19:56;2.70;;;2.60;;
3149;SDS011;32503;47.748;8.960;2022-09-12T10:22:25;2.83;;;2.73;;
3149;SDS011;32503;47.748;8.960;2022-09-12T10:24:55;2.80;;;2.70;;
3149;SDS011;32503;47.748;8.960;2022-09-12T10:27:27;2.77;;;2.57;;
3149;SDS011;32503;47.748;8.960;2022-09-12T10:30:01;2.50;;;2.30;;
3149;SDS011;32503;47.748;8.960;2022-09-12T10:32:33;2.90;;;2.80;;
3149;SDS011;32503;47.748;8.960;2022-09-12T10:35:04;3.20;;;3.00;;
3149;SDS011;32503;47.748;8.960;2022-09-12T10:37:48;2.93;;;2.83;;
3149;SDS011;32503;47.748;8.960;2022-09-12T10:40:20;2.93;;;2.83;;
3149;SDS011;32503;47.748;8.960;2022-09-12T10:42:51;2.43;;;2.33;;
3149;SDS011;32503;47.748;8.960;2022-09-12T10:45:22;2.67;;;2.47;;
3149;SDS011;32503;47.748;8.960;2022-09-12T10:47:53;2.17;;;2.07;;
3149;SDS011;32503;47.748;8.960;2022-09-12T10:50:29;2.17;;;2.07;;
3149;SDS011;32503;47.748;8.960;2022-09-12T10:53:16;2.00;;;1.90;;
3149;SDS011;32503;47.748;8.960;2022-09-12T10:56:00;2.23;;;2.13;;
3149;SDS011;32503;47.748;8.960;2022-09-12T10:58:35;2.30;;;2.00;;
3149;SDS011;32503;47.748;8.960;2022-09-12T11:01:31;2.20;;;2.10;;
3149;SDS011;32503;47.748;8.960;2022-09-12T11:04:25;2.30;;;2.20;;
3149;SDS011;32503;47.748;8.960;2022-09-12T11:10:09;2.50;;;2.40;;
3149;SDS011;32503;47.748;8.960;2022-09-12T11:12:52;2.60;;;2.30;;
3149;SDS011;32503;47.748;8.960;2022-09-12T11:15:37;2.43;;;2.33;;
3149;SDS011;32503;47.748;8.960;2022-09-12T11:18:25;2.93;;;2.83;;
3149;SDS011;32503;47.748;8.960;2022-09-12T11:24:16;2.40;;;2.30;;
3149;SDS011;32503;47.748;8.960;2022-09-12T11:27:05;2.20;;;2.00;;
3149;SDS011;32503;47.748;8.960;2022-09-12T11:29:46;2.37;;;2.27;;
3149;SDS011;32503;47.748;8.960;2022-09-12T11:35:26;2.03;;;1.93;;
3149;SDS011;32503;47.748;8.960;2022-09-12T11:41:01;2.50;;;2.40;;
3149;SDS011;32503;47.748;8.960;2022-09-12T11:43:35;2.67;;;2.57;;
3149;SDS011;32503;47.748;8.960;2022-09-12T11:46:10;2.80;;;2.60;;
3149;SDS011;32503;47.748;8.960;2022-09-12T11:48:45;2.47;;;2.33;;
3149;SDS011;32503;47.748;8.960;2022-09-12T11:51:22;1.87;;;1.77;;
3149;SDS011;32503;47.748;8.960;2022-09-12T11:53:58;2.40;;;2.30;;
3149;SDS011;32503;47.748;8.960;2022-09-12T11:56:37;2.20;;;2.10;;
3149;SDS011;32503;47.748;8.960;2022-09-12T11:59:11;2.50;;;2.40;;
3149;SDS011;32503;47.748;8.960;2022-09-12T12:01:50;2.27;;;1.87;;
3149;SDS011;32503;47.748;8.960;2022-09-12T12:04:24;3.13;;;1.80;;
3149;SDS011;32503;47.748;8.960;2022-09-12T12:07:02;2.90;;;2.80;;
3149;SDS011;32503;47.748;8.960;2022-09-12T12:09:32;2.00;;;1.90;;
3149;SDS011;32503;47.748;8.960;2022-09-12T12:12:14;1.90;;;1.80;;
3149;SDS011;32503;47.748;8.960;2022-09-12T12:14:46;6.53;;;1.63;;
3149;SDS011;32503;47.748;8.960;2022-09-12T12:17:17;2.10;;;2.00;;
3149;SDS011;32503;47.748;8.960;2022-09-12T12:19:47;2.37;;;2.27;;
3149;SDS011;32503;47.748;8.960;2022-09-12T12:22:26;2.90;;;1.70;;
3149;SDS011;32503;47.748;8.960;2022-09-12T12:25:04;1.70;;;1.60;;
3149;SDS011;32503;47.748;8.960;2022-09-12T12:27:53;2.00;;;1.90;;
3149;SDS011;32503;47.748;8.960;2022-09-12T12:36:44;2.00;;;1.90;;
3149;SDS011;32503;47.748;8.960;2022-09-12T12:57:31;1.90;;;1.80;;
3149;SDS011;32503;47.748;8.960;2022-09-12T13:00:28;1.80;;;1.70;;
3149;SDS011;32503;47.748;8.960;2022-09-12T13:02:59;1.53;;;1.43;;
3149;SDS011;32503;47.748;8.960;2022-09-12T13:05:39;1.67;;;1.57;;
3149;SDS011;32503;47.748;8.960;2022-09-12T13:08:10;1.80;;;1.70;;
3149;SDS011;32503;47.748;8.960;2022-09-12T13:10:57;1.30;;;1.30;;
3149;SDS011;32503;47.748;8.960;2022-09-12T13:13:29;1.70;;;1.60;;
3149;SDS011;32503;47.748;8.960;2022-09-12T13:16:02;1.50;;;1.40;;
3149;SDS011;32503;47.748;8.960;2022-09-12T13:18:31;1.80;;;1.70;;
3149;SDS011;32503;47.748;8.960;2022-09-12T13:21:08;1.60;;;1.50;;
3149;SDS011;32503;47.748;8.960;2022-09-12T13:23:41;1.40;;;1.30;;
3149;SDS011;32503;47.748;8.960;2022-09-12T13:26:10;1.80;;;1.70;;
3149;SDS011;32503;47.748;8.960;2022-09-12T13:28:50;1.53;;;1.43;;
3149;SDS011;32503;47.748;8.960;2022-09-12T13:31:35;1.33;;;1.17;;
3149;SDS011;32503;47.748;8.960;2022-09-12T13:34:03;5.63;;;2.03;;
3149;SDS011;32503;47.748;8.960;2022-09-12T13:36:41;1.20;;;1.10;;
3149;SDS011;32503;47.748;8.960;2022-09-12T13:39:23;1.83;;;1.73;;
3149;SDS011;32503;47.748;8.960;2022-09-12T13:45:05;1.60;;;1.50;;
3149;SDS011;32503;47.748;8.960;2022-09-12T13:47:39;1.30;;;1.20;;
3149;SDS011;32503;47.748;8.960;2022-09-12T13:50:13;1.80;;;1.70;;
3149;SDS011;32503;47.748;8.960;2022-09-12T13:52:45;1.30;;;1.20;;
3149;SDS011;32503;47.748;8.960;2022-09-12T13:55:27;1.47;;;1.37;;
3149;SDS011;32503;47.748;8.960;2022-09-12T13:57:59;1.33;;;1.23;;
3149;SDS011;32503;47.748;8.960;2022-09-12T14:00:30;1.30;;;1.20;;
3149;SDS011;32503;47.748;8.960;2022-09-12T14:02:59;1.23;;;1.13;;
3149;SDS011;32503;47.748;8.960;2022-09-12T14:05:45;2.00;;;1.90;;
3149;SDS011;32503;47.748;8.960;2022-09-12T14:08:21;1.50;;;1.40;;
3149;SDS011;32503;47.748;8.960;2022-09-12T14:10:50;1.40;;;1.30;;
3149;SDS011;32503;47.748;8.960;2022-09-12T14:13:17;1.50;;;1.40;;
3149;SDS011;32503;47.748;8.960;2022-09-12T14:15:51;1.37;;;1.27;;
3149;SDS011;32503;47.748;8.960;2022-09-12T14:18:22;1.50;;;1.40;;
3149;SDS011;32503;47.748;8.960;2022-09-12T14:20:52;1.40;;;1.30;;
3149;SDS011;32503;47.748;8.960;2022-09-12T14:23:23;1.20;;;1.10;;
3149;SDS011;32503;47.748;8.960;2022-09-12T14:25:53;1.90;;;1.80;;
3149;SDS011;32503;47.748;8.960;2022-09-12T14:28:22;2.90;;;2.70;;
3149;SDS011;32503;47.748;8.960;2022-09-12T14:30:58;4.00;;;3.70;;
3149;SDS011;32503;47.748;8.960;2022-09-12T14:33:30;1.50;;;1.40;;
3149;SDS011;32503;47.748;8.960;2022-09-12T14:36:11;1.60;;;1.50;;
3149;SDS011;32503;47.748;8.960;2022-09-12T14:38:48;1.77;;;1.40;;
3149;SDS011;32503;47.748;8.960;2022-09-12T14:41:21;1.87;;;1.77;;
3149;SDS011;32503;47.748;8.960;2022-09-12T14:43:53;1.67;;;1.57;;
3149;SDS011;32503;47.748;8.960;2022-09-12T14:46:25;1.40;;;1.30;;
3149;SDS011;32503;47.748;8.960;2022-09-12T14:48:59;1.90;;;1.80;;
3149;SDS011;32503;47.748;8.960;2022-09-12T14:51:33;1.67;;;1.57;;
3149;SDS011;32503;47.748;8.960;2022-09-12T14:54:04;1.57;;;1.47;;
3149;SDS011;32503;47.748;8.960;2022-09-12T14:56:38;1.60;;;1.50;;
3149;SDS011;32503;47.748;8.960;2022-09-12T14:59:25;1.53;;;1.43;;
3149;SDS011;32503;47.748;8.960;2022-09-12T15:02:15;2.13;;;2.03;;
3149;SDS011;32503;47.748;8.960;2022-09-12T15:04:48;1.40;;;1.30;;
3149;SDS011;32503;47.748;8.960;2022-09-12T15:07:20;1.40;;;1.30;;
3149;SDS011;32503;47.748;8.960;2022-09-12T15:09:56;2.10;;;1.23;;
3149;SDS011;32503;47.748;8.960;2022-09-12T15:12:26;1.57;;;1.47;;
3149;SDS011;32503;47.748;8.960;2022-09-12T15:14:54;1.47;;;1.37;;
3149;SDS011;32503;47.748;8.960;2022-09-12T15:17:29;1.30;;;1.20;;
3149;SDS011;32503;47.748;8.960;2022-09-12T15:19:56;1.27;;;1.17;;
3149;SDS011;32503;47.748;8.960;2022-09-12T15:22:23;1.47;;;1.37;;
3149;SDS011;32503;47.748;8.960;2022-09-12T15:24:51;1.30;;;1.20;;
3149;SDS011;32503;47.748;8.960;2022-09-12T15:27:18;1.10;;;1.10;;
3149;SDS011;32503;47.748;8.960;2022-09-12T15:29:45;1.53;;;1.43;;
3149;SDS011;32503;47.748;8.960;2022-09-12T15:32:13;1.60;;;1.50;;
3149;SDS011;32503;47.748;8.960;2022-09-12T15:34:50;1.57;;;1.47;;
3149;SDS011;32503;47.748;8.960;2022-09-12T15:37:18;1.40;;;1.30;;
3149;SDS011;32503;47.748;8.960;2022-09-12T15:39:47;7.33;;;6.93;;
3149;SDS011;32503;47.748;8.960;2022-09-12T15:42:15;1.60;;;1.50;;
3149;SDS011;32503;47.748;8.960;2022-09-12T15:44:45;1.20;;;1.10;;
3149;SDS011;32503;47.748;8.960;2022-09-12T15:47:12;1.80;;;1.70;;
3149;SDS011;32503;47.748;8.960;2022-09-12T15:49:39;1.80;;;1.70;;
3149;SDS011;32503;47.748;8.960;2022-09-12T15:52:10;1.60;;;1.50;;
3149;SDS011;32503;47.748;8.960;2022-09-12T15:54:41;1.67;;;1.57;;
3149;SDS011;32503;47.748;8.960;2022-09-12T15:57:08;1.30;;;1.20;;
3149;SDS011;32503;47.748;8.960;2022-09-12T15:59:35;1.90;;;1.80;;
3149;SDS011;32503;47.748;8.960;2022-09-12T16:02:03;1.83;;;1.73;;
3149;SDS011;32503;47.748;8.960;2022-09-12T16:04:30;1.70;;;1.60;;
3149;SDS011;32503;47.748;8.960;2022-09-12T16:06:57;1.30;;;1.20;;
3149;SDS011;32503;47.748;8.960;2022-09-12T16:09:25;1.70;;;1.60;;
3149;SDS011;32503;47.748;8.960;2022-09-12T16:11:52;1.43;;;1.33;;
3149;SDS011;32503;47.748;8.960;2022-09-12T16:14:19;1.90;;;1.80;;
3149;SDS011;32503;47.748;8.960;2022-09-12T16:16:50;1.23;;;1.13;;
3149;SDS011;32503;47.748;8.960;2022-09-12T16:19:18;2.30;;;2.10;;
3149;SDS011;32503;47.748;8.960;2022-09-12T16:21:46;1.27;;;1.17;;